sensor_id;sensor_type;location;lat;lon;timestamp;temperature;humidity
73137;DHT22;62977;45.636;11.750;2023-02-01T00:00:14;2.70;79.30
73137;DHT22;62977;45.636;11.750;2023-02-01T00:02:40;2.50;79.00
73137;DHT22;62977;45.636;11.750;2023-02-01T00:05:10;2.70;79.10
73137;DHT22;62977;45.636;11.750;2023-02-01T00:07:36;2.60;79.20
73137;DHT22;62977;45.636;11.750;2023-02-01T00:10:03;2.70;79.30
73137;DHT22;62977;45.636;11.750;2023-02-01T00:12:30;2.70;79.10
73137;DHT22;62977;45.636;11.750;2023-02-01T00:14:56;2.80;79.20
73137;DHT22;62977;45.636;11.750;2023-02-01T00:17:21;2.80;78.80
73137;DHT22;62977;45.636;11.750;2023-02-01T00:19:47;2.70;79.30
73137;DHT22;62977;45.636;11.750;2023-02-01T00:22:13;2.70;79.40
73137;DHT22;62977;45.636;11.750;2023-02-01T00:24:38;2.70;79.30
73137;DHT22;62977;45.636;11.750;2023-02-01T00:27:04;2.50;79.00
73137;DHT22;62977;45.636;11.750;2023-02-01T00:29:29;2.80;78.90
73137;DHT22;62977;45.636;11.750;2023-02-01T00:31:55;2.80;78.80
73137;DHT22;62977;45.636;11.750;2023-02-01T00:34:21;2.80;78.80
73137;DHT22;62977;45.636;11.750;2023-02-01T00:36:47;2.50;78.80
73137;DHT22;62977;45.636;11.750;2023-02-01T00:39:13;2.60;78.80
73137;DHT22;62977;45.636;11.750;2023-02-01T00:41:38;2.20;78.90
73137;DHT22;62977;45.636;11.750;2023-02-01T00:44:05;2.40;79.10
73137;DHT22;62977;45.636;11.750;2023-02-01T00:46:31;2.30;78.90
73137;DHT22;62977;45.636;11.750;2023-02-01T00:48:57;2.50;78.90
73137;DHT22;62977;45.636;11.750;2023-02-01T00:51:26;2.50;79.00
73137;DHT22;62977;45.636;11.750;2023-02-01T00:53:52;2.20;79.20
73137;DHT22;62977;45.636;11.750;2023-02-01T00:56:18;2.30;79.30
73137;DHT22;62977;45.636;11.750;2023-02-01T00:58:44;2.40;79.00
73137;DHT22;62977;45.636;11.750;2023-02-01T01:01:18;2.20;78.90
73137;DHT22;62977;45.636;11.750;2023-02-01T01:03:51;2.20;79.00
73137;DHT22;62977;45.636;11.750;2023-02-01T01:06:20;2.40;79.00
73137;DHT22;62977;45.636;11.750;2023-02-01T01:08:46;2.10;79.00
73137;DHT22;62977;45.636;11.750;2023-02-01T01:11:17;2.30;79.10
73137;DHT22;62977;45.636;11.750;2023-02-01T01:13:45;2.20;78.80
73137;DHT22;62977;45.636;11.750;2023-02-01T01:16:11;2.10;78.80
73137;DHT22;62977;45.636;11.750;2023-02-01T01:18:37;1.90;79.10
73137;DHT22;62977;45.636;11.750;2023-02-01T01:21:05;2.10;78.80
73137;DHT22;62977;45.636;11.750;2023-02-01T01:23:31;1.90;78.80
73137;DHT22;62977;45.636;11.750;2023-02-01T01:25:57;2.00;78.70
73137;DHT22;62977;45.636;11.750;2023-02-01T01:28:23;1.90;78.90
73137;DHT22;62977;45.636;11.750;2023-02-01T01:30:48;2.00;78.80
73137;DHT22;62977;45.636;11.750;2023-02-01T01:33:14;1.90;78.60
73137;DHT22;62977;45.636;11.750;2023-02-01T01:35:40;1.90;78.50
73137;DHT22;62977;45.636;11.750;2023-02-01T01:38:05;2.00;78.40
73137;DHT22;62977;45.636;11.750;2023-02-01T01:40:31;1.90;78.50
73137;DHT22;62977;45.636;11.750;2023-02-01T01:42:57;2.00;78.50
73137;DHT22;62977;45.636;11.750;2023-02-01T01:45:27;2.00;78.40
73137;DHT22;62977;45.636;11.750;2023-02-01T01:48:04;2.00;78.40
73137;DHT22;62977;45.636;11.750;2023-02-01T01:50:37;1.80;78.30
73137;DHT22;62977;45.636;11.750;2023-02-01T01:53:06;1.90;78.20
73137;DHT22;62977;45.636;11.750;2023-02-01T01:55:37;1.80;78.00
73137;DHT22;62977;45.636;11.750;2023-02-01T01:58:12;1.80;77.80
73137;DHT22;62977;45.636;11.750;2023-02-01T02:00:39;2.00;77.60
73137;DHT22;62977;45.636;11.750;2023-02-01T02:03:19;1.80;77.60
73137;DHT22;62977;45.636;11.750;2023-02-01T02:05:47;2.00;77.50
73137;DHT22;62977;45.636;11.750;2023-02-01T02:08:14;2.20;77.30
73137;DHT22;62977;45.636;11.750;2023-02-01T02:10:39;2.30;76.90
73137;DHT22;62977;45.636;11.750;2023-02-01T02:13:24;2.20;76.90
73137;DHT22;62977;45.636;11.750;2023-02-01T02:35:41;2.40;76.50
73137;DHT22;62977;45.636;11.750;2023-02-01T02:46:47;2.10;77.00
73137;DHT22;62977;45.636;11.750;2023-02-01T02:49:49;2.00;77.20
73137;DHT22;62977;45.636;11.750;2023-02-01T02:52:43;1.80;77.10
73137;DHT22;62977;45.636;11.750;2023-02-01T02:55:29;1.60;77.20
73137;DHT22;62977;45.636;11.750;2023-02-01T02:57:58;1.80;77.40
73137;DHT22;62977;45.636;11.750;2023-02-01T03:00:43;1.60;77.30
73137;DHT22;62977;45.636;11.750;2023-02-01T03:03:28;1.70;77.60
73137;DHT22;62977;45.636;11.750;2023-02-01T03:06:16;1.50;77.50
73137;DHT22;62977;45.636;11.750;2023-02-01T03:08:43;1.30;77.80
73137;DHT22;62977;45.636;11.750;2023-02-01T03:11:15;1.50;78.00
73137;DHT22;62977;45.636;11.750;2023-02-01T03:13:59;1.50;78.20
73137;DHT22;62977;45.636;11.750;2023-02-01T03:16:32;1.30;78.20
73137;DHT22;62977;45.636;11.750;2023-02-01T03:21:51;1.20;78.20
73137;DHT22;62977;45.636;11.750;2023-02-01T03:24:30;1.30;78.20
73137;DHT22;62977;45.636;11.750;2023-02-01T03:30:22;1.40;78.50
73137;DHT22;62977;45.636;11.750;2023-02-01T03:32:51;1.00;78.50
73137;DHT22;62977;45.636;11.750;2023-02-01T03:41:21;1.30;78.60
73137;DHT22;62977;45.636;11.750;2023-02-01T03:46:47;1.30;78.20
73137;DHT22;62977;45.636;11.750;2023-02-01T03:49:27;1.40;78.40
73137;DHT22;62977;45.636;11.750;2023-02-01T03:51:55;1.20;77.90
73137;DHT22;62977;45.636;11.750;2023-02-01T03:54:24;1.20;78.40
73137;DHT22;62977;45.636;11.750;2023-02-01T03:56:51;1.50;78.20
73137;DHT22;62977;45.636;11.750;2023-02-01T03:59:19;1.50;77.90
73137;DHT22;62977;45.636;11.750;2023-02-01T04:01:45;1.30;78.00
73137;DHT22;62977;45.636;11.750;2023-02-01T04:04:11;1.30;78.10
73137;DHT22;62977;45.636;11.750;2023-02-01T04:06:48;1.20;78.10
73137;DHT22;62977;45.636;11.750;2023-02-01T04:09:14;1.30;78.20
73137;DHT22;62977;45.636;11.750;2023-02-01T04:11:40;1.10;78.20
73137;DHT22;62977;45.636;11.750;2023-02-01T04:14:06;1.20;78.60
73137;DHT22;62977;45.636;11.750;2023-02-01T04:16:32;1.00;78.80
73137;DHT22;62977;45.636;11.750;2023-02-01T04:18:58;1.00;79.00
73137;DHT22;62977;45.636;11.750;2023-02-01T04:21:27;1.10;78.60
73137;DHT22;62977;45.636;11.750;2023-02-01T04:23:54;1.10;78.60
73137;DHT22;62977;45.636;11.750;2023-02-01T04:26:20;1.40;79.00
73137;DHT22;62977;45.636;11.750;2023-02-01T04:28:47;1.30;78.70
73137;DHT22;62977;45.636;11.750;2023-02-01T04:31:14;1.30;78.70
73137;DHT22;62977;45.636;11.750;2023-02-01T04:33:40;1.00;78.90
73137;DHT22;62977;45.636;11.750;2023-02-01T04:36:06;1.10;79.10
73137;DHT22;62977;45.636;11.750;2023-02-01T04:38:32;1.10;79.00
73137;DHT22;62977;45.636;11.750;2023-02-01T04:40:58;1.10;79.00
73137;DHT22;62977;45.636;11.750;2023-02-01T04:43:24;1.10;78.70
73137;DHT22;62977;45.636;11.750;2023-02-01T04:45:50;1.20;78.90
73137;DHT22;62977;45.636;11.750;2023-02-01T04:48:18;1.10;78.80
73137;DHT22;62977;45.636;11.750;2023-02-01T04:50:44;1.20;78.70
73137;DHT22;62977;45.636;11.750;2023-02-01T04:53:13;1.10;78.70
73137;DHT22;62977;45.636;11.750;2023-02-01T04:55:40;0.90;79.00
73137;DHT22;62977;45.636;11.750;2023-02-01T04:58:05;0.90;79.00
73137;DHT22;62977;45.636;11.750;2023-02-01T05:00:31;1.10;78.90
73137;DHT22;62977;45.636;11.750;2023-02-01T05:02:57;1.00;79.20
73137;DHT22;62977;45.636;11.750;2023-02-01T05:05:22;0.90;78.70
73137;DHT22;62977;45.636;11.750;2023-02-01T05:07:48;1.00;78.70
73137;DHT22;62977;45.636;11.750;2023-02-01T05:10:14;0.90;78.70
73137;DHT22;62977;45.636;11.750;2023-02-01T05:12:39;0.80;78.50
73137;DHT22;62977;45.636;11.750;2023-02-01T05:15:24;0.60;79.30
73137;DHT22;62977;45.636;11.750;2023-02-01T05:17:49;0.70;79.40
73137;DHT22;62977;45.636;11.750;2023-02-01T05:20:15;0.80;79.10
73137;DHT22;62977;45.636;11.750;2023-02-01T05:22:41;1.00;78.90
73137;DHT22;62977;45.636;11.750;2023-02-01T05:25:07;0.60;78.80
73137;DHT22;62977;45.636;11.750;2023-02-01T05:27:33;0.60;78.90
73137;DHT22;62977;45.636;11.750;2023-02-01T05:29:59;0.70;78.70
73137;DHT22;62977;45.636;11.750;2023-02-01T05:32:24;0.80;78.70
73137;DHT22;62977;45.636;11.750;2023-02-01T05:34:50;0.70;78.70
73137;DHT22;62977;45.636;11.750;2023-02-01T05:37:16;0.50;79.20
73137;DHT22;62977;45.636;11.750;2023-02-01T05:39:41;0.50;79.30
73137;DHT22;62977;45.636;11.750;2023-02-01T05:42:07;0.50;79.30
73137;DHT22;62977;45.636;11.750;2023-02-01T05:44:33;0.50;79.00
73137;DHT22;62977;45.636;11.750;2023-02-01T05:46:58;0.70;79.20
73137;DHT22;62977;45.636;11.750;2023-02-01T05:49:24;0.60;79.40
73137;DHT22;62977;45.636;11.750;2023-02-01T05:51:49;0.90;78.80
73137;DHT22;62977;45.636;11.750;2023-02-01T05:54:15;0.80;78.70
73137;DHT22;62977;45.636;11.750;2023-02-01T05:56:41;1.00;79.00
73137;DHT22;62977;45.636;11.750;2023-02-01T05:59:06;1.10;78.70
73137;DHT22;62977;45.636;11.750;2023-02-01T06:01:32;1.00;78.90
73137;DHT22;62977;45.636;11.750;2023-02-01T06:03:57;1.00;79.10
73137;DHT22;62977;45.636;11.750;2023-02-01T06:06:23;1.10;78.70
73137;DHT22;62977;45.636;11.750;2023-02-01T06:08:49;1.10;78.70
73137;DHT22;62977;45.636;11.750;2023-02-01T06:11:14;1.20;78.50
73137;DHT22;62977;45.636;11.750;2023-02-01T06:13:40;1.00;78.80
73137;DHT22;62977;45.636;11.750;2023-02-01T06:16:06;1.10;79.20
73137;DHT22;62977;45.636;11.750;2023-02-01T06:18:34;1.00;78.90
73137;DHT22;62977;45.636;11.750;2023-02-01T06:21:00;1.10;79.30
73137;DHT22;62977;45.636;11.750;2023-02-01T06:23:26;1.20;79.40
73137;DHT22;62977;45.636;11.750;2023-02-01T06:25:57;1.40;79.20
73137;DHT22;62977;45.636;11.750;2023-02-01T06:28:24;1.50;78.60
73137;DHT22;62977;45.636;11.750;2023-02-01T06:30:50;1.60;78.50
73137;DHT22;62977;45.636;11.750;2023-02-01T06:33:16;1.30;78.60
73137;DHT22;62977;45.636;11.750;2023-02-01T06:35:42;1.70;78.50
73137;DHT22;62977;45.636;11.750;2023-02-01T06:38:12;1.80;78.50
73137;DHT22;62977;45.636;11.750;2023-02-01T06:40:39;1.80;78.30
73137;DHT22;62977;45.636;11.750;2023-02-01T06:43:04;1.80;78.40
73137;DHT22;62977;45.636;11.750;2023-02-01T06:45:30;1.90;78.30
73137;DHT22;62977;45.636;11.750;2023-02-01T06:47:57;1.80;78.60
73137;DHT22;62977;45.636;11.750;2023-02-01T06:50:23;1.90;78.90
73137;DHT22;62977;45.636;11.750;2023-02-01T06:52:49;2.00;78.70
73137;DHT22;62977;45.636;11.750;2023-02-01T06:55:14;1.90;78.30
73137;DHT22;62977;45.636;11.750;2023-02-01T06:57:40;2.10;78.50
73137;DHT22;62977;45.636;11.750;2023-02-01T07:00:06;2.00;78.60
73137;DHT22;62977;45.636;11.750;2023-02-01T07:02:32;1.90;79.00
73137;DHT22;62977;45.636;11.750;2023-02-01T07:04:58;1.90;79.20
73137;DHT22;62977;45.636;11.750;2023-02-01T07:07:23;1.90;79.50
73137;DHT22;62977;45.636;11.750;2023-02-01T07:09:49;1.90;79.30
73137;DHT22;62977;45.636;11.750;2023-02-01T07:12:15;2.00;79.30
73137;DHT22;62977;45.636;11.750;2023-02-01T07:14:41;2.00;79.20
73137;DHT22;62977;45.636;11.750;2023-02-01T07:17:07;2.00;79.40
73137;DHT22;62977;45.636;11.750;2023-02-01T07:19:33;2.10;79.20
73137;DHT22;62977;45.636;11.750;2023-02-01T07:21:58;2.00;79.30
73137;DHT22;62977;45.636;11.750;2023-02-01T07:24:24;2.00;79.40
73137;DHT22;62977;45.636;11.750;2023-02-01T07:26:50;2.10;79.40
73137;DHT22;62977;45.636;11.750;2023-02-01T07:29:17;2.10;79.40
73137;DHT22;62977;45.636;11.750;2023-02-01T07:31:43;2.20;79.40
73137;DHT22;62977;45.636;11.750;2023-02-01T07:34:09;1.90;79.30
73137;DHT22;62977;45.636;11.750;2023-02-01T07:36:34;2.00;79.40
73137;DHT22;62977;45.636;11.750;2023-02-01T07:39:02;1.80;79.70
73137;DHT22;62977;45.636;11.750;2023-02-01T07:41:28;2.00;79.70
73137;DHT22;62977;45.636;11.750;2023-02-01T07:43:54;2.30;79.50
73137;DHT22;62977;45.636;11.750;2023-02-01T07:46:20;2.10;79.10
73137;DHT22;62977;45.636;11.750;2023-02-01T07:48:46;2.30;78.90
73137;DHT22;62977;45.636;11.750;2023-02-01T07:51:14;2.50;78.50
73137;DHT22;62977;45.636;11.750;2023-02-01T07:53:41;2.50;78.40
73137;DHT22;62977;45.636;11.750;2023-02-01T07:56:16;2.40;78.60
73137;DHT22;62977;45.636;11.750;2023-02-01T07:58:42;2.60;78.40
73137;DHT22;62977;45.636;11.750;2023-02-01T08:01:19;2.40;78.00
73137;DHT22;62977;45.636;11.750;2023-02-01T08:03:55;2.50;77.80
73137;DHT22;62977;45.636;11.750;2023-02-01T08:06:23;2.60;77.80
73137;DHT22;62977;45.636;11.750;2023-02-01T08:08:49;2.80;77.40
73137;DHT22;62977;45.636;11.750;2023-02-01T08:11:16;3.20;77.30
73137;DHT22;62977;45.636;11.750;2023-02-01T08:13:42;3.30;77.20
73137;DHT22;62977;45.636;11.750;2023-02-01T08:16:10;3.20;77.00
73137;DHT22;62977;45.636;11.750;2023-02-01T08:18:37;3.20;76.80
73137;DHT22;62977;45.636;11.750;2023-02-01T08:21:09;3.40;76.70
73137;DHT22;62977;45.636;11.750;2023-02-01T08:23:35;3.50;76.70
73137;DHT22;62977;45.636;11.750;2023-02-01T08:26:25;3.60;76.60
73137;DHT22;62977;45.636;11.750;2023-02-01T08:28:56;3.60;76.70
73137;DHT22;62977;45.636;11.750;2023-02-01T08:31:23;3.70;77.30
73137;DHT22;62977;45.636;11.750;2023-02-01T08:33:57;3.90;77.10
73137;DHT22;62977;45.636;11.750;2023-02-01T08:36:25;3.60;76.70
73137;DHT22;62977;45.636;11.750;2023-02-01T08:38:51;3.50;77.20
73137;DHT22;62977;45.636;11.750;2023-02-01T08:41:19;3.50;77.30
73137;DHT22;62977;45.636;11.750;2023-02-01T08:43:45;3.60;77.30
73137;DHT22;62977;45.636;11.750;2023-02-01T08:46:11;3.80;77.40
73137;DHT22;62977;45.636;11.750;2023-02-01T08:48:38;3.70;77.50
73137;DHT22;62977;45.636;11.750;2023-02-01T08:51:06;3.90;77.40
73137;DHT22;62977;45.636;11.750;2023-02-01T08:53:32;3.90;77.20
73137;DHT22;62977;45.636;11.750;2023-02-01T08:55:58;3.90;77.20
73137;DHT22;62977;45.636;11.750;2023-02-01T08:58:24;4.20;76.90
73137;DHT22;62977;45.636;11.750;2023-02-01T09:00:50;4.40;76.80
73137;DHT22;62977;45.636;11.750;2023-02-01T09:03:16;4.60;76.50
73137;DHT22;62977;45.636;11.750;2023-02-01T09:05:42;4.60;76.20
73137;DHT22;62977;45.636;11.750;2023-02-01T09:08:08;4.60;76.40
73137;DHT22;62977;45.636;11.750;2023-02-01T09:10:34;4.60;76.50
73137;DHT22;62977;45.636;11.750;2023-02-01T09:13:00;4.70;76.60
73137;DHT22;62977;45.636;11.750;2023-02-01T09:15:26;5.10;76.40
73137;DHT22;62977;45.636;11.750;2023-02-01T09:17:51;5.20;76.30
73137;DHT22;62977;45.636;11.750;2023-02-01T09:20:17;5.40;75.80
73137;DHT22;62977;45.636;11.750;2023-02-01T09:22:45;5.70;75.30
73137;DHT22;62977;45.636;11.750;2023-02-01T09:25:11;5.60;75.40
73137;DHT22;62977;45.636;11.750;2023-02-01T09:27:36;5.70;75.50
73137;DHT22;62977;45.636;11.750;2023-02-01T09:30:03;6.00;75.40
73137;DHT22;62977;45.636;11.750;2023-02-01T09:32:30;6.20;75.30
73137;DHT22;62977;45.636;11.750;2023-02-01T09:34:55;6.20;74.90
73137;DHT22;62977;45.636;11.750;2023-02-01T09:37:22;6.30;74.30
73137;DHT22;62977;45.636;11.750;2023-02-01T09:39:47;6.50;74.40
73137;DHT22;62977;45.636;11.750;2023-02-01T09:42:23;6.60;74.50
73137;DHT22;62977;45.636;11.750;2023-02-01T09:47:46;6.80;74.50
73137;DHT22;62977;45.636;11.750;2023-02-01T09:50:17;7.10;74.50
73137;DHT22;62977;45.636;11.750;2023-02-01T09:53:27;7.40;74.00
73137;DHT22;62977;45.636;11.750;2023-02-01T09:56:22;7.80;73.70
73137;DHT22;62977;45.636;11.750;2023-02-01T09:59:01;8.00;73.60
73137;DHT22;62977;45.636;11.750;2023-02-01T10:01:29;8.30;73.30
73137;DHT22;62977;45.636;11.750;2023-02-01T10:04:02;8.60;73.10
73137;DHT22;62977;45.636;11.750;2023-02-01T10:15:30;9.40;71.90
73137;DHT22;62977;45.636;11.750;2023-02-01T10:18:07;9.60;71.90
73137;DHT22;62977;45.636;11.750;2023-02-01T10:20:48;9.90;71.60
73137;DHT22;62977;45.636;11.750;2023-02-01T10:26:12;9.70;71.40
73137;DHT22;62977;45.636;11.750;2023-02-01T10:28:41;9.80;71.70
73137;DHT22;62977;45.636;11.750;2023-02-01T10:31:09;9.90;71.00
73137;DHT22;62977;45.636;11.750;2023-02-01T10:33:42;10.10;71.30
73137;DHT22;62977;45.636;11.750;2023-02-01T10:36:35;10.00;70.40
73137;DHT22;62977;45.636;11.750;2023-02-01T10:39:04;10.40;70.30
73137;DHT22;62977;45.636;11.750;2023-02-01T10:41:35;10.50;70.00
73137;DHT22;62977;45.636;11.750;2023-02-01T10:44:06;10.50;70.20
73137;DHT22;62977;45.636;11.750;2023-02-01T10:46:34;10.80;70.10
73137;DHT22;62977;45.636;11.750;2023-02-01T10:49:03;10.60;70.10
73137;DHT22;62977;45.636;11.750;2023-02-01T10:53:58;11.10;70.30
73137;DHT22;62977;45.636;11.750;2023-02-01T10:56:27;11.60;62.90
73137;DHT22;62977;45.636;11.750;2023-02-01T10:59:04;11.70;62.40
73137;DHT22;62977;45.636;11.750;2023-02-01T11:01:34;12.20;61.40
73137;DHT22;62977;45.636;11.750;2023-02-01T11:04:02;12.60;61.10
73137;DHT22;62977;45.636;11.750;2023-02-01T11:06:32;12.70;58.80
73137;DHT22;62977;45.636;11.750;2023-02-01T11:09:01;12.80;58.40
73137;DHT22;62977;45.636;11.750;2023-02-01T11:11:56;13.10;59.00
73137;DHT22;62977;45.636;11.750;2023-02-01T11:17:15;12.10;62.20
73137;DHT22;62977;45.636;11.750;2023-02-01T11:19:38;12.30;62.20
73137;DHT22;62977;45.636;11.750;2023-02-01T11:22:05;12.90;59.10
73137;DHT22;62977;45.636;11.750;2023-02-01T11:24:34;13.30;58.40
73137;DHT22;62977;45.636;11.750;2023-02-01T11:27:06;13.60;56.60
73137;DHT22;62977;45.636;11.750;2023-02-01T11:29:43;13.70;56.30
73137;DHT22;62977;45.636;11.750;2023-02-01T11:32:13;14.10;56.10
73137;DHT22;62977;45.636;11.750;2023-02-01T11:39:56;14.30;55.40
73137;DHT22;62977;45.636;11.750;2023-02-01T11:42:23;13.70;56.50
73137;DHT22;62977;45.636;11.750;2023-02-01T11:44:49;13.90;56.10
73137;DHT22;62977;45.636;11.750;2023-02-01T11:49:54;13.70;56.70
73137;DHT22;62977;45.636;11.750;2023-02-01T11:52:54;13.70;56.50
73137;DHT22;62977;45.636;11.750;2023-02-01T11:55:33;13.80;56.70
73137;DHT22;62977;45.636;11.750;2023-02-01T12:19:39;14.10;55.40
73137;DHT22;62977;45.636;11.750;2023-02-01T12:28:40;15.40;53.80
73137;DHT22;62977;45.636;11.750;2023-02-01T12:31:17;15.70;51.80
73137;DHT22;62977;45.636;11.750;2023-02-01T12:44:56;15.10;54.10
73137;DHT22;62977;45.636;11.750;2023-02-01T12:47:47;15.00;53.00
73137;DHT22;62977;45.636;11.750;2023-02-01T12:50:23;14.20;54.70
73137;DHT22;62977;45.636;11.750;2023-02-01T12:52:52;14.60;54.20
73137;DHT22;62977;45.636;11.750;2023-02-01T12:55:35;14.40;55.00
73137;DHT22;62977;45.636;11.750;2023-02-01T12:58:12;15.20;53.10
73137;DHT22;62977;45.636;11.750;2023-02-01T13:00:43;15.50;51.50
73137;DHT22;62977;45.636;11.750;2023-02-01T13:09:03;16.00;50.50
73137;DHT22;62977;45.636;11.750;2023-02-01T13:11:34;15.90;48.30
73137;DHT22;62977;45.636;11.750;2023-02-01T13:16:48;15.70;49.10
73137;DHT22;62977;45.636;11.750;2023-02-01T13:22:02;15.60;48.70
73137;DHT22;62977;45.636;11.750;2023-02-01T13:24:40;16.20;48.50
73137;DHT22;62977;45.636;11.750;2023-02-01T13:27:14;17.10;46.30
73137;DHT22;62977;45.636;11.750;2023-02-01T13:41:15;17.10;46.20
73137;DHT22;62977;45.636;11.750;2023-02-01T13:43:22;16.00;47.60
73137;DHT22;62977;45.636;11.750;2023-02-01T13:45:51;15.60;47.70
73137;DHT22;62977;45.636;11.750;2023-02-01T13:48:51;16.10;45.90
73137;DHT22;62977;45.636;11.750;2023-02-01T13:51:42;16.60;43.50
73137;DHT22;62977;45.636;11.750;2023-02-01T13:54:31;16.50;45.00
73137;DHT22;62977;45.636;11.750;2023-02-01T13:57:02;17.30;44.60
73137;DHT22;62977;45.636;11.750;2023-02-01T14:10:55;17.70;43.70
73137;DHT22;62977;45.636;11.750;2023-02-01T14:13:41;17.60;43.60
73137;DHT22;62977;45.636;11.750;2023-02-01T14:16:14;17.50;44.30
73137;DHT22;62977;45.636;11.750;2023-02-01T14:23:57;18.20;41.30
73137;DHT22;62977;45.636;11.750;2023-02-01T14:31:48;16.60;44.90
73137;DHT22;62977;45.636;11.750;2023-02-01T14:34:22;16.90;45.60
73137;DHT22;62977;45.636;11.750;2023-02-01T14:36:58;17.20;44.60
73137;DHT22;62977;45.636;11.750;2023-02-01T14:39:26;17.60;44.80
73137;DHT22;62977;45.636;11.750;2023-02-01T14:41:58;17.50;44.10
73137;DHT22;62977;45.636;11.750;2023-02-01T14:44:30;17.30;45.20
73137;DHT22;62977;45.636;11.750;2023-02-01T14:47:04;16.00;47.00
73137;DHT22;62977;45.636;11.750;2023-02-01T14:49:56;15.50;48.90
73137;DHT22;62977;45.636;11.750;2023-02-01T14:52:29;15.00;51.30
73137;DHT22;62977;45.636;11.750;2023-02-01T14:55:01;14.30;53.00
73137;DHT22;62977;45.636;11.750;2023-02-01T14:57:29;14.00;54.60
73137;DHT22;62977;45.636;11.750;2023-02-01T15:02:46;13.40;55.20
73137;DHT22;62977;45.636;11.750;2023-02-01T15:07:52;12.90;57.00
73137;DHT22;62977;45.636;11.750;2023-02-01T15:10:19;12.60;59.10
73137;DHT22;62977;45.636;11.750;2023-02-01T15:12:46;12.50;59.60
73137;DHT22;62977;45.636;11.750;2023-02-01T15:15:21;12.50;59.70
73137;DHT22;62977;45.636;11.750;2023-02-01T15:17:55;12.40;60.20
73137;DHT22;62977;45.636;11.750;2023-02-01T15:20:25;11.90;61.40
73137;DHT22;62977;45.636;11.750;2023-02-01T15:22:59;11.90;61.80
73137;DHT22;62977;45.636;11.750;2023-02-01T15:25:45;11.60;62.90
73137;DHT22;62977;45.636;11.750;2023-02-01T15:28:15;11.60;63.20
73137;DHT22;62977;45.636;11.750;2023-02-01T15:33:25;11.50;70.00
73137;DHT22;62977;45.636;11.750;2023-02-01T15:36:06;11.50;70.10
73137;DHT22;62977;45.636;11.750;2023-02-01T15:38:36;11.20;71.10
73137;DHT22;62977;45.636;11.750;2023-02-01T15:48:57;11.00;71.70
73137;DHT22;62977;45.636;11.750;2023-02-01T15:51:26;10.80;71.50
73137;DHT22;62977;45.636;11.750;2023-02-01T15:56:25;10.60;71.80
73137;DHT22;62977;45.636;11.750;2023-02-01T15:58:57;10.40;72.00
73137;DHT22;62977;45.636;11.750;2023-02-01T16:01:24;10.50;71.90
73137;DHT22;62977;45.636;11.750;2023-02-01T16:04:10;10.50;72.10
73137;DHT22;62977;45.636;11.750;2023-02-01T16:06:48;10.40;71.90
73137;DHT22;62977;45.636;11.750;2023-02-01T16:09:16;10.50;71.90
73137;DHT22;62977;45.636;11.750;2023-02-01T16:11:51;10.60;72.00
73137;DHT22;62977;45.636;11.750;2023-02-01T16:14:17;10.60;71.70
73137;DHT22;62977;45.636;11.750;2023-02-01T16:16:43;10.50;71.90
73137;DHT22;62977;45.636;11.750;2023-02-01T16:19:09;10.40;72.00
73137;DHT22;62977;45.636;11.750;2023-02-01T16:21:34;10.10;71.90
73137;DHT22;62977;45.636;11.750;2023-02-01T16:24:00;10.00;72.50
73137;DHT22;62977;45.636;11.750;2023-02-01T16:26:29;9.90;72.80
73137;DHT22;62977;45.636;11.750;2023-02-01T16:28:57;9.80;73.00
73137;DHT22;62977;45.636;11.750;2023-02-01T16:31:27;9.80;73.10
73137;DHT22;62977;45.636;11.750;2023-02-01T16:33:53;9.60;73.20
73137;DHT22;62977;45.636;11.750;2023-02-01T16:36:20;9.40;73.40
73137;DHT22;62977;45.636;11.750;2023-02-01T16:38:46;9.30;73.50
73137;DHT22;62977;45.636;11.750;2023-02-01T16:41:19;9.30;73.60
73137;DHT22;62977;45.636;11.750;2023-02-01T16:43:45;9.30;73.50
73137;DHT22;62977;45.636;11.750;2023-02-01T16:46:16;9.40;73.60
73137;DHT22;62977;45.636;11.750;2023-02-01T16:48:46;9.20;73.80
73137;DHT22;62977;45.636;11.750;2023-02-01T16:51:15;9.10;73.90
73137;DHT22;62977;45.636;11.750;2023-02-01T16:53:42;9.00;74.00
73137;DHT22;62977;45.636;11.750;2023-02-01T16:56:30;8.90;73.80
73137;DHT22;62977;45.636;11.750;2023-02-01T16:58:57;8.80;74.10
73137;DHT22;62977;45.636;11.750;2023-02-01T17:01:23;8.50;75.00
73137;DHT22;62977;45.636;11.750;2023-02-01T17:03:49;8.50;74.90
73137;DHT22;62977;45.636;11.750;2023-02-01T17:06:18;8.50;75.00
73137;DHT22;62977;45.636;11.750;2023-02-01T17:08:47;8.40;75.00
73137;DHT22;62977;45.636;11.750;2023-02-01T17:11:15;8.30;74.90
73137;DHT22;62977;45.636;11.750;2023-02-01T17:13:41;8.30;75.00
73137;DHT22;62977;45.636;11.750;2023-02-01T17:16:27;8.20;75.30
73137;DHT22;62977;45.636;11.750;2023-02-01T17:19:11;8.20;75.70
73137;DHT22;62977;45.636;11.750;2023-02-01T17:21:43;8.20;75.80
73137;DHT22;62977;45.636;11.750;2023-02-01T17:24:13;8.20;75.70
73137;DHT22;62977;45.636;11.750;2023-02-01T17:26:40;8.20;75.60
73137;DHT22;62977;45.636;11.750;2023-02-01T17:29:06;8.10;75.70
73137;DHT22;62977;45.636;11.750;2023-02-01T17:31:33;7.90;75.70
73137;DHT22;62977;45.636;11.750;2023-02-01T17:34:00;7.60;76.20
73137;DHT22;62977;45.636;11.750;2023-02-01T17:36:26;7.60;76.40
73137;DHT22;62977;45.636;11.750;2023-02-01T17:38:51;7.50;76.40
73137;DHT22;62977;45.636;11.750;2023-02-01T17:41:17;7.50;76.50
73137;DHT22;62977;45.636;11.750;2023-02-01T17:43:43;7.50;76.60
73137;DHT22;62977;45.636;11.750;2023-02-01T17:46:16;7.50;76.50
73137;DHT22;62977;45.636;11.750;2023-02-01T17:48:45;7.50;76.20
73137;DHT22;62977;45.636;11.750;2023-02-01T17:51:19;7.50;76.50
73137;DHT22;62977;45.636;11.750;2023-02-01T17:53:45;7.60;76.50
73137;DHT22;62977;45.636;11.750;2023-02-01T17:56:13;7.50;76.20
73137;DHT22;62977;45.636;11.750;2023-02-01T17:58:40;7.40;76.60
73137;DHT22;62977;45.636;11.750;2023-02-01T18:01:05;7.30;76.80
73137;DHT22;62977;45.636;11.750;2023-02-01T18:03:31;7.20;76.80
73137;DHT22;62977;45.636;11.750;2023-02-01T18:05:58;7.20;76.60
73137;DHT22;62977;45.636;11.750;2023-02-01T18:08:28;7.20;76.50
73137;DHT22;62977;45.636;11.750;2023-02-01T18:10:59;7.20;76.60
73137;DHT22;62977;45.636;11.750;2023-02-01T18:13:29;7.20;76.70
73137;DHT22;62977;45.636;11.750;2023-02-01T18:15:56;7.00;77.00
73137;DHT22;62977;45.636;11.750;2023-02-01T18:18:24;6.50;77.60
73137;DHT22;62977;45.636;11.750;2023-02-01T18:20:50;6.60;77.70
73137;DHT22;62977;45.636;11.750;2023-02-01T18:23:19;6.50;77.80
73137;DHT22;62977;45.636;11.750;2023-02-01T18:25:45;6.20;77.90
73137;DHT22;62977;45.636;11.750;2023-02-01T18:28:13;6.10;78.00
73137;DHT22;62977;45.636;11.750;2023-02-01T18:30:40;6.10;78.00
73137;DHT22;62977;45.636;11.750;2023-02-01T18:33:10;6.20;78.20
73137;DHT22;62977;45.636;11.750;2023-02-01T18:35:36;6.20;77.80